Terminal Aerodrome Forecast
Issued by NWS

Current Version | Previous Version | Text Only | Print | Product List | Glossary On
Versions: 1 2 3 4 5 6 7 8 9 10 11 12 13 14 15 16 17 18
000
FTUS44 KBMX 181306 AAA
TAFTCL
TAF AMD
KTCL 181306Z 1813/1912 00000KT P6SM OVC010
     FM181600 15005KT P6SM BKN015 OVC035
     FM190000 18010KT 3SM TSRA BR OVC010CB=

USA.gov is the U.S. government's official web portal to all federal, state and local government web resources and services.